Charleston, ME (04422)

1:00 PM EDT on October 23, 2014 (GMT -0400)
KMEGARLA2 | Change Station
CLOSE
Current Station
Personal Weather Station
Location: Garland, ME
Elevation: 410 ft
Nearby Weather Stations
Active Advisory: Areal Flood Watch Active Notice: Public Information Statement

Elev 410 ft 45.02 °N, 69.13 °W | Updated 34 seconds ago

Rain
Rain
47.5 °F
Feels Like 41 °F
N
16.0
Wind Variable Wind from NNE
Gusts 24.0 mph

Today
High -- | Low -- °F
--% Chance of Precip.
Yesterday
High -- | Low -- °F
Precip. -- in
7:02 AM 5:37 PM
Waning Crescent, 0% visible
Pressure 29.88 in
Visibility 2.0 miles
Clouds Overcast 1200 ft
Windchill 41 °F
Dew Point 46 °F
Humidity 95%
Rainfall 0.58 in
Snow Depth Not available.
UV 1 out of 12
Pollen .10 out of 12
Air Quality Not available.
Flu Activity Sporadic
METAR KBGR 231653Z 04013G26KT 2SM BR OVC012 10/09 A2988 RMK AO2 PK WND 04026/1645 SFC VIS 2 1/2 RAE51 SLP119 P0006 T01000089

More Conditions Fewer Conditions

Pressure 29.88 in
Visibility 2.0 miles
Clouds Overcast 1200 ft
Windchill 41 °F
Dew Point 46 °F
Humidity 95%
Rainfall 0.58 in
Snow Depth Not available.
UV 1 out of 12
Pollen .10 out of 12
Air Quality Not available.
Flu Activity Sporadic
METAR KBGR 231653Z 04013G26KT 2SM BR OVC012 10/09 A2988 RMK AO2 PK WND 04026/1645 SFC VIS 2 1/2 RAE51 SLP119 P0006 T01000089

More Conditions Fewer Conditions

10-Day Weather Forecast

Almanac

Astronomy

Oct. 23, 2014 Rise Set
Actual Time 7:02 AM EDT 5:37 PM EDT
Civil Twilight 6:32 AM EDT 6:07 PM EDT
Nautical Twilight 5:58 AM EDT 6:42 PM EDT
Astronomical Twilight 5:24 AM EDT 7:16 PM EDT
Moon 6:37 AM EDT 5:37 PM EDT
Length of Visible Light 11h 35m
Length of Day
10h 35m
Tomorrow will be 2m 56s shorter.
Waning Crescent, 0% of the Moon is Illuminated
Today
Waning Crescent
Oct 23
New
Oct 30
First Quarter
Nov 6
Full
Nov 14
Last Quarter

Today's Extremes

State Highs State Lows

Community

WunderPhotos

Upload Photos

1,764,311 photos uploaded!

WunderBlogs® & News

Nearby

Air Quality

  Air Quality AQ Index Pollutant
Thursday Good
OZONE
Thursday Good
PM2.5
Friday Good
OZONE
Friday Good
PM2.5
Saturday Good
OZONE
Saturday Good
PM2.5

Snow Depth

Station Depth Elevation
No new snow has been reported.

Earthquake Activity

City Distance Mag. Time & Date
No recent earthquake activity has been reported nearby.
Minimum magnitude displayed is 2.5.

Coastal Water Temperatures

Place Temperature
No Stations Reporting

Nearby Weather Stations